Time;durP1;ratioP1;P1;durP2;ratioP2;P2;SDS_P1;SDS_P2;PMS_P1;PMS_P2;Temp;Humidity;BMP_temperature;BMP_pressure;BME280_temperature;BME280_humidity;BME280_pressure;Samples;Min_cycle;Max_cycle;Signal;HPM_P1;HPM_P2
2022/11/26 06:00:39;;;;;;;4.50;3.80;;;7.00;97.20;;;;;;1707177;29;20202;-75
2022/11/26 06:01:30;;;;;;;4.63;4.13;;;6.90;97.20;;;;;;1707198;29;20203;-76
2022/11/26 06:02:22;;;;;;;4.00;3.60;;;6.90;97.20;;;;;;1707050;29;20206;-75
2022/11/26 06:03:13;;;;;;;4.55;3.85;;;6.90;97.20;;;;;;1707192;29;20207;-75
2022/11/26 06:04:05;;;;;;;5.27;4.30;;;6.90;97.20;;;;;;1707039;29;20206;-76
2022/11/26 06:04:55;;;;;;;7.25;4.15;;;6.90;97.20;;;;;;1706255;29;21401;-77
2022/11/26 06:05:47;;;;;;;7.23;4.50;;;6.90;97.20;;;;;;1707130;29;20212;-76
2022/11/26 06:06:38;;;;;;;6.22;4.38;;;6.90;97.20;;;;;;1706530;29;20214;-77
2022/11/26 06:07:30;;;;;;;4.50;4.10;;;6.90;97.20;;;;;;1706818;29;20663;-76
2022/11/26 06:08:20;;;;;;;4.72;4.20;;;6.90;97.20;;;;;;1707018;29;20576;-75
2022/11/26 06:09:12;;;;;;;6.30;4.13;;;6.90;97.20;;;;;;1706277;29;20224;-75
2022/11/26 06:10:05;;;;;;;4.63;4.15;;;6.90;97.20;;;;;;1706845;29;20277;-75
2022/11/26 06:10:56;;;;;;;4.65;4.25;;;6.90;97.20;;;;;;1706988;28;20269;-75
2022/11/26 06:11:48;;;;;;;5.80;4.95;;;6.90;97.20;;;;;;1707057;29;20687;-75
2022/11/26 06:12:39;;;;;;;5.65;4.15;;;6.90;97.20;;;;;;1707032;29;20206;-75
2022/11/26 06:13:30;;;;;;;8.35;4.70;;;6.90;97.20;;;;;;1707167;29;20217;-75
2022/11/26 06:14:22;;;;;;;6.97;4.90;;;6.90;97.20;;;;;;1706983;29;20209;-76
2022/11/26 06:15:13;;;;;;;9.15;5.70;;;6.90;97.20;;;;;;1707144;29;20622;-76
2022/11/26 06:16:07;;;;;;;7.50;5.43;;;6.90;97.20;;;;;;1706998;29;20225;-76
2022/11/26 06:16:57;;;;;;;7.07;5.65;;;6.80;97.20;;;;;;1706873;29;20207;-75
2022/11/26 06:17:49;;;;;;;5.23;4.73;;;6.80;97.20;;;;;;1705068;29;20570;-76
2022/11/26 06:18:40;;;;;;;5.70;5.20;;;6.80;97.20;;;;;;1705683;29;20211;-76
2022/11/26 06:19:32;;;;;;;4.60;4.20;;;6.80;97.20;;;;;;1700458;29;20214;-75
2022/11/26 06:20:22;;;;;;;4.85;4.13;;;6.80;97.20;;;;;;1700306;29;20678;-76
2022/11/26 06:21:14;;;;;;;8.43;3.70;;;6.80;97.20;;;;;;1700389;29;20719;-76
2022/11/26 06:22:05;;;;;;;6.40;4.00;;;6.70;97.20;;;;;;1700402;29;20596;-76
2022/11/26 06:22:57;;;;;;;4.20;3.63;;;6.70;97.20;;;;;;1700559;29;20599;-75
2022/11/26 06:23:48;;;;;;;4.55;4.25;;;6.70;97.20;;;;;;1700372;29;20210;-75
2022/11/26 06:24:39;;;;;;;5.60;3.60;;;6.60;97.20;;;;;;1700465;29;20203;-75
2022/11/26 06:25:30;;;;;;;4.00;3.70;;;6.60;97.20;;;;;;1700500;29;20207;-75
2022/11/26 06:26:22;;;;;;;4.55;4.07;;;6.60;97.20;;;;;;1700607;29;20286;-76
2022/11/26 06:27:13;;;;;;;5.25;3.88;;;6.60;97.20;;;;;;1700209;29;20210;-75
2022/11/26 06:28:05;;;;;;;5.10;4.00;;;6.60;97.20;;;;;;1700526;29;20213;-76
2022/11/26 06:28:56;;;;;;;4.32;3.85;;;6.60;97.20;;;;;;1706128;29;20277;-75
2022/11/26 06:29:47;;;;;;;3.73;3.43;;;6.60;97.20;;;;;;1706715;29;20253;-76
2022/11/26 06:30:38;;;;;;;4.55;3.28;;;6.60;97.20;;;;;;1702223;29;20230;-75
2022/11/26 06:31:31;;;;;;;3.63;3.33;;;6.70;97.20;;;;;;1700659;29;20207;-76
2022/11/26 06:32:22;;;;;;;4.60;3.03;;;6.70;97.20;;;;;;1700619;29;20214;-75
2022/11/26 06:33:14;;;;;;;4.37;3.10;;;6.70;97.20;;;;;;1700872;29;20275;-75
2022/11/26 06:34:04;;;;;;;3.75;3.35;;;6.70;97.20;;;;;;1700592;29;20309;-76
2022/11/26 06:34:56;;;;;;;3.97;3.43;;;6.70;97.20;;;;;;1700816;29;20296;-76
2022/11/26 06:35:47;;;;;;;4.60;3.63;;;6.70;97.20;;;;;;1700807;29;20724;-75
2022/11/26 06:36:39;;;;;;;3.77;3.47;;;6.60;97.20;;;;;;1700637;29;20563;-76
2022/11/26 06:37:30;;;;;;;4.20;2.97;;;6.70;97.20;;;;;;1700706;29;20203;-76
2022/11/26 06:38:22;;;;;;;5.85;3.60;;;6.60;97.20;;;;;;1700707;29;20199;-75
2022/11/26 06:39:13;;;;;;;3.42;3.13;;;6.60;97.20;;;;;;1700521;29;20235;-76
2022/11/26 06:40:05;;;;;;;3.77;3.23;;;6.60;97.20;;;;;;1700680;29;20229;-76
2022/11/26 06:40:58;;;;;;;3.67;3.20;;;6.60;97.20;;;;;;1700354;29;20226;-75
2022/11/26 06:41:50;;;;;;;5.05;3.75;;;6.60;97.20;;;;;;1701069;29;20203;-76
2022/11/26 06:42:41;;;;;;;4.90;3.42;;;6.60;97.20;;;;;;1705075;29;20202;-75
2022/11/26 06:43:33;;;;;;;3.80;3.30;;;6.60;97.20;;;;;;1707291;29;20213;-75
2022/11/26 06:44:24;;;;;;;5.75;3.65;;;6.60;97.20;;;;;;1707357;29;20683;-75
2022/11/26 06:45:15;;;;;;;6.00;3.60;;;6.60;97.20;;;;;;1707423;29;20600;-75
2022/11/26 06:46:08;;;;;;;3.63;3.33;;;6.60;97.20;;;;;;1707457;29;20210;-75
2022/11/26 06:47:02;;;;;;;4.15;3.28;;;6.60;97.20;;;;;;1707738;29;20199;-75
2022/11/26 06:47:53;;;;;;;3.97;3.28;;;6.60;97.20;;;;;;1707986;29;20349;-75
2022/11/26 06:48:44;;;;;;;3.60;3.30;;;6.60;97.20;;;;;;1706422;29;20202;-75
2022/11/26 06:49:35;;;;;;;8.98;4.50;;;6.60;97.20;;;;;;1707003;29;20461;-75
2022/11/26 06:50:27;;;;;;;6.30;4.30;;;6.50;97.20;;;;;;1706821;29;20221;-75
2022/11/26 06:51:19;;;;;;;4.15;3.75;;;6.50;97.20;;;;;;1707033;29;20453;-75
2022/11/26 06:52:11;;;;;;;5.53;4.05;;;6.50;97.20;;;;;;1706915;29;20209;-75
2022/11/26 06:53:01;;;;;;;4.53;3.30;;;6.50;97.20;;;;;;1706985;29;20217;-75
2022/11/26 06:53:53;;;;;;;3.63;3.37;;;6.50;97.20;;;;;;1707137;29;20206;-75
2022/11/26 06:54:44;;;;;;;3.90;3.13;;;6.50;97.20;;;;;;1707101;29;20207;-75
2022/11/26 06:55:37;;;;;;;4.47;3.40;;;6.50;97.20;;;;;;1706986;29;20206;-75
2022/11/26 06:56:27;;;;;;;5.40;4.15;;;6.50;97.20;;;;;;1706979;29;20211;-75
2022/11/26 06:57:19;;;;;;;3.57;3.27;;;6.50;97.20;;;;;;1706721;29;20208;-75
2022/11/26 06:58:10;;;;;;;4.63;3.47;;;6.50;97.20;;;;;;1706590;29;20680;-75
2022/11/26 06:59:02;;;;;;;3.80;3.20;;;6.40;97.20;;;;;;1699986;29;20629;-75
2022/11/26 06:59:52;;;;;;;5.05;3.35;;;6.40;97.20;;;;;;1700229;29;20258;-75
2022/11/26 07:00:44;;;;;;;4.50;3.80;;;6.40;97.20;;;;;;1700242;29;20255;-75
2022/11/26 07:01:35;;;;;;;4.65;3.42;;;6.40;97.20;;;;;;1700324;29;20203;-75
2022/11/26 07:02:28;;;;;;;5.60;3.60;;;6.40;97.20;;;;;;1700363;29;20218;-75
2022/11/26 07:03:18;;;;;;;4.28;3.45;;;6.40;97.20;;;;;;1700421;29;20582;-75
2022/11/26 07:04:12;;;;;;;4.33;3.80;;;6.40;97.20;;;;;;1700179;29;20565;-75
2022/11/26 07:05:03;;;;;;;5.13;3.70;;;6.40;97.20;;;;;;1700317;29;20211;-75
2022/11/26 07:05:54;;;;;;;5.15;4.07;;;6.40;97.20;;;;;;1700328;29;20291;-75
2022/11/26 07:06:45;;;;;;;4.28;3.65;;;6.40;97.20;;;;;;1700045;29;20266;-75
2022/11/26 07:07:37;;;;;;;4.20;3.83;;;6.40;97.20;;;;;;1700280;29;20294;-75
2022/11/26 07:08:28;;;;;;;4.30;3.72;;;6.40;97.20;;;;;;1700928;29;20450;-75
2022/11/26 07:09:20;;;;;;;5.45;4.15;;;6.40;97.20;;;;;;1701833;29;20229;-75
2022/11/26 07:10:11;;;;;;;6.40;4.65;;;6.40;97.20;;;;;;1701697;29;20207;-75
2022/11/26 07:11:03;;;;;;;5.05;4.13;;;6.40;97.20;;;;;;1702315;29;20230;-75
2022/11/26 07:11:54;;;;;;;5.38;4.03;;;6.40;97.20;;;;;;1701641;29;20211;-75
2022/11/26 07:12:45;;;;;;;6.10;3.77;;;6.30;97.20;;;;;;1701503;29;20230;-75
2022/11/26 07:13:36;;;;;;;7.32;4.40;;;6.40;97.20;;;;;;1701684;29;20230;-75
2022/11/26 07:14:28;;;;;;;4.90;3.73;;;6.30;97.20;;;;;;1701907;29;20199;-75
2022/11/26 07:15:19;;;;;;;4.35;3.40;;;6.30;97.20;;;;;;1707291;29;20450;-75
2022/11/26 07:16:11;;;;;;;5.60;3.90;;;6.30;97.20;;;;;;1707923;29;20206;-75
2022/11/26 07:17:01;;;;;;;5.40;3.60;;;6.30;97.20;;;;;;1707566;29;20202;-75
2022/11/26 07:17:54;;;;;;;5.43;3.83;;;6.30;97.20;;;;;;1708097;29;20675;-75
2022/11/26 07:18:47;;;;;;;4.93;4.40;;;6.40;97.20;;;;;;1707567;29;20213;-75
2022/11/26 07:19:39;;;;;;;5.93;3.70;;;6.40;97.20;;;;;;1707979;29;20205;-76
2022/11/26 07:20:30;;;;;;;6.60;4.20;;;6.40;97.20;;;;;;1707773;29;20227;-75
2022/11/26 07:21:23;;;;;;;5.40;3.07;;;6.40;97.20;;;;;;1708175;29;20293;-75
2022/11/26 07:22:14;;;;;;;5.57;3.80;;;6.40;97.20;;;;;;1708078;29;20207;-75
2022/11/26 07:23:06;;;;;;;3.65;3.15;;;6.40;97.20;;;;;;1708066;29;20206;-75
2022/11/26 07:23:57;;;;;;;4.20;3.45;;;6.40;97.20;;;;;;1708111;29;20206;-75
2022/11/26 07:24:49;;;;;;;3.88;3.30;;;6.40;97.20;;;;;;1708053;28;20615;-75
2022/11/26 07:25:39;;;;;;;4.47;2.72;;;6.40;97.20;;;;;;1708103;29;20214;-75
2022/11/26 07:26:31;;;;;;;5.67;3.23;;;6.40;97.20;;;;;;1708022;29;20206;-75
2022/11/26 07:27:22;;;;;;;6.00;3.17;;;6.40;97.20;;;;;;1708006;29;20203;-75
2022/11/26 07:28:14;;;;;;;4.20;2.67;;;6.40;97.20;;;;;;1707975;29;20203;-75
2022/11/26 07:29:04;;;;;;;5.63;2.70;;;6.40;97.20;;;;;;1707572;29;20320;-75
2022/11/26 07:29:56;;;;;;;4.03;2.80;;;6.40;97.20;;;;;;1707937;29;20203;-75
2022/11/26 07:30:47;;;;;;;4.68;3.40;;;6.40;97.20;;;;;;1707730;29;20233;-75
2022/11/26 07:31:38;;;;;;;4.90;3.10;;;6.40;97.20;;;;;;1706459;29;20202;-75
2022/11/26 07:32:29;;;;;;;3.55;2.83;;;6.40;97.20;;;;;;1707871;29;20218;-76
2022/11/26 07:33:22;;;;;;;4.65;3.17;;;6.40;97.20;;;;;;1707960;29;20237;-75
2022/11/26 07:34:13;;;;;;;3.92;3.17;;;6.40;97.20;;;;;;1707899;29;20213;-75
2022/11/26 07:35:06;;;;;;;5.20;3.10;;;6.40;97.20;;;;;;1707999;29;20208;-75
2022/11/26 07:35:59;;;;;;;4.57;2.88;;;6.40;97.20;;;;;;1707979;29;20218;-75
2022/11/26 07:36:50;;;;;;;4.25;3.15;;;6.40;97.20;;;;;;1707632;29;20548;-75
2022/11/26 07:37:41;;;;;;;4.60;3.45;;;6.40;97.20;;;;;;1707967;29;20633;-75
2022/11/26 07:38:33;;;;;;;4.53;3.43;;;6.40;97.20;;;;;;1707436;29;20206;-76
2022/11/26 07:39:24;;;;;;;5.40;3.45;;;6.40;97.20;;;;;;1707827;29;20211;-75
2022/11/26 07:40:16;;;;;;;5.73;4.30;;;6.40;97.20;;;;;;1707762;29;20206;-75
2022/11/26 07:41:09;;;;;;;5.50;3.60;;;6.50;97.20;;;;;;1707774;29;20207;-75
2022/11/26 07:42:01;;;;;;;5.57;4.15;;;6.50;97.20;;;;;;1707926;29;20198;-75
2022/11/26 07:42:52;;;;;;;4.85;3.90;;;6.50;97.20;;;;;;1707836;29;20210;-75
2022/11/26 07:43:44;;;;;;;5.93;3.80;;;6.50;97.20;;;;;;1707820;29;20676;-75
2022/11/26 07:44:35;;;;;;;6.32;3.55;;;6.50;97.20;;;;;;1707948;29;20461;-75
2022/11/26 07:45:26;;;;;;;5.00;3.80;;;6.50;97.20;;;;;;1707778;29;20206;-75
2022/11/26 07:46:20;;;;;;;5.68;4.07;;;6.50;97.20;;;;;;1707901;29;20211;-75
2022/11/26 07:47:11;;;;;;;6.35;4.35;;;6.50;97.20;;;;;;1707575;29;20202;-74
2022/11/26 07:48:03;;;;;;;5.05;3.70;;;6.50;97.20;;;;;;1706314;29;20202;-75
2022/11/26 07:48:56;;;;;;;5.05;4.20;;;6.50;97.20;;;;;;1707161;29;20282;-74
2022/11/26 07:49:47;;;;;;;4.07;3.67;;;6.50;97.20;;;;;;1707747;29;20675;-75
2022/11/26 07:50:43;;;;;;;4.10;3.70;;;6.60;97.20;;;;;;1707803;29;20656;-74
2022/11/26 07:51:35;;;;;;;5.95;4.25;;;6.60;97.20;;;;;;1707877;29;20202;-74
2022/11/26 07:52:27;;;;;;;7.30;5.43;;;6.60;97.20;;;;;;1707764;29;20668;-74
2022/11/26 07:53:18;;;;;;;7.80;4.90;;;6.60;97.20;;;;;;1707835;29;20203;-74
2022/11/26 07:54:09;;;;;;;6.03;4.97;;;6.60;97.20;;;;;;1707870;29;20679;-74
2022/11/26 07:55:00;;;;;;;9.07;5.20;;;6.60;97.20;;;;;;1707793;29;20687;-75
2022/11/26 07:55:52;;;;;;;6.93;4.60;;;6.60;97.20;;;;;;1707686;29;20672;-75
2022/11/26 07:56:43;;;;;;;7.03;5.25;;;6.70;97.20;;;;;;1707582;29;20264;-75
2022/11/26 07:57:35;;;;;;;8.30;5.60;;;6.70;97.20;;;;;;1707792;29;20202;-74
2022/11/26 07:58:25;;;;;;;6.82;6.07;;;6.70;97.20;;;;;;1707220;29;20685;-75
2022/11/26 07:59:17;;;;;;;5.90;5.30;;;6.70;97.20;;;;;;1707686;29;20538;-74
2022/11/26 08:00:09;;;;;;;6.20;4.93;;;6.80;97.20;;;;;;1707519;29;20582;-74
2022/11/26 08:01:07;;;;;;;6.97;5.70;;;6.80;97.20;;;;;;1707732;29;20354;-75
2022/11/26 08:01:58;;;;;;;5.78;4.90;;;6.80;97.20;;;;;;1707803;28;20249;-75
2022/11/26 08:02:49;;;;;;;8.53;5.30;;;6.90;97.20;;;;;;1707837;29;20262;-74
2022/11/26 08:03:42;;;;;;;5.57;4.40;;;6.90;97.20;;;;;;1707954;29;20214;-75
2022/11/26 08:04:35;;;;;;;7.45;5.40;;;6.90;97.20;;;;;;1703313;29;20203;-74
2022/11/26 08:05:26;;;;;;;5.20;4.72;;;6.90;97.20;;;;;;1701065;29;20222;-74
2022/11/26 08:06:19;;;;;;;6.73;4.50;;;7.00;97.20;;;;;;1701123;29;20235;-75
2022/11/26 08:07:10;;;;;;;5.93;4.25;;;7.00;97.20;;;;;;1700886;29;20210;-75
2022/11/26 08:08:01;;;;;;;6.53;4.93;;;7.00;97.20;;;;;;1701195;29;20214;-76
2022/11/26 08:08:52;;;;;;;5.15;4.50;;;7.00;97.20;;;;;;1700584;29;20207;-75
2022/11/26 08:09:44;;;;;;;4.93;4.43;;;7.00;97.20;;;;;;1701010;29;20235;-75
2022/11/26 08:10:35;;;;;;;4.47;4.07;;;7.00;97.20;;;;;;1701062;29;20467;-75
2022/11/26 08:11:29;;;;;;;3.30;3.03;;;7.00;97.20;;;;;;1701138;29;20290;-75
2022/11/26 08:12:20;;;;;;;6.15;3.45;;;7.00;97.20;;;;;;1701173;29;20207;-75
2022/11/26 08:13:11;;;;;;;4.03;3.70;;;7.00;97.20;;;;;;1701165;29;20207;-75
2022/11/26 08:14:05;;;;;;;4.00;3.58;;;7.00;97.20;;;;;;1701137;29;20373;-75
2022/11/26 08:14:56;;;;;;;4.00;3.60;;;7.00;97.20;;;;;;1701128;29;20203;-75
2022/11/26 08:15:47;;;;;;;3.60;3.30;;;7.10;97.20;;;;;;1701167;29;20211;-75
2022/11/26 08:16:39;;;;;;;4.10;3.70;;;7.10;97.20;;;;;;1700959;29;20209;-76
2022/11/26 08:17:30;;;;;;;3.97;3.47;;;7.10;97.20;;;;;;1700960;29;20447;-74
2022/11/26 08:18:22;;;;;;;4.53;4.13;;;7.10;97.20;;;;;;1701145;29;20213;-75
2022/11/26 08:19:13;;;;;;;4.22;3.80;;;7.10;97.20;;;;;;1700608;29;20577;-75
2022/11/26 08:20:07;;;;;;;5.30;4.03;;;7.20;97.20;;;;;;1701809;29;20237;-75
2022/11/26 08:20:59;;;;;;;5.35;3.63;;;7.20;97.20;;;;;;1702018;29;20471;-75
2022/11/26 08:21:51;;;;;;;5.82;4.15;;;7.20;97.20;;;;;;1701030;29;20234;-75
2022/11/26 08:22:42;;;;;;;5.63;4.43;;;7.20;97.20;;;;;;1701162;29;20432;-75
2022/11/26 08:23:34;;;;;;;5.20;4.50;;;7.20;97.20;;;;;;1701718;29;20206;-75
2022/11/26 08:24:25;;;;;;;4.78;4.28;;;7.20;97.20;;;;;;1700956;29;20215;-75
2022/11/26 08:25:17;;;;;;;3.73;3.43;;;7.30;97.20;;;;;;1701082;29;20334;-74
2022/11/26 08:26:09;;;;;;;5.65;4.35;;;7.30;97.20;;;;;;1700924;29;20215;-74
2022/11/26 08:27:01;;;;;;;6.20;5.10;;;7.20;97.20;;;;;;1700983;29;20195;-75
2022/11/26 08:27:52;;;;;;;5.10;4.40;;;7.20;97.20;;;;;;1700953;29;20203;-74
2022/11/26 08:28:46;;;;;;;4.80;4.30;;;7.30;97.20;;;;;;1700550;29;20242;-75
2022/11/26 08:29:37;;;;;;;5.60;4.75;;;7.30;97.20;;;;;;1700917;29;20993;-75
2022/11/26 08:30:29;;;;;;;7.17;4.70;;;7.30;97.20;;;;;;1700710;29;20804;-74
2022/11/26 08:31:21;;;;;;;16.52;4.85;;;7.30;97.20;;;;;;1701098;29;20207;-74
2022/11/26 08:32:13;;;;;;;5.22;4.55;;;7.30;97.20;;;;;;1700970;29;20208;-74
2022/11/26 08:33:04;;;;;;;6.93;4.30;;;7.30;97.20;;;;;;1700973;29;20208;-74
2022/11/26 08:33:56;;;;;;;4.60;4.07;;;7.30;97.20;;;;;;1701011;29;20250;-75
2022/11/26 08:34:47;;;;;;;5.97;5.20;;;7.40;97.20;;;;;;1700901;29;20447;-75
2022/11/26 08:35:40;;;;;;;9.00;5.10;;;7.40;97.20;;;;;;1701083;29;20203;-75
2022/11/26 08:36:31;;;;;;;5.43;4.93;;;7.40;97.20;;;;;;1700898;29;20203;-76
2022/11/26 08:37:22;;;;;;;7.20;4.70;;;7.40;97.20;;;;;;1703893;29;20199;-75
2022/11/26 08:38:13;;;;;;;7.55;5.20;;;7.40;97.20;;;;;;1700928;29;20210;-75
2022/11/26 08:39:05;;;;;;;5.13;4.63;;;7.50;97.20;;;;;;1700080;29;20207;-75
2022/11/26 08:39:56;;;;;;;7.68;5.05;;;7.50;97.20;;;;;;1700856;29;20207;-75
2022/11/26 08:40:47;;;;;;;7.50;4.97;;;7.50;97.20;;;;;;1700788;29;20254;-75
2022/11/26 08:41:39;;;;;;;6.85;4.72;;;7.50;97.20;;;;;;1700954;29;20203;-74
2022/11/26 08:42:30;;;;;;;7.35;5.30;;;7.50;97.20;;;;;;1700825;29;20211;-75
2022/11/26 08:43:22;;;;;;;5.80;5.00;;;7.60;97.20;;;;;;1701080;29;20207;-75
2022/11/26 08:44:12;;;;;;;6.47;4.75;;;7.60;97.20;;;;;;1700912;29;20211;-75
2022/11/26 08:45:05;;;;;;;6.70;4.87;;;7.60;97.20;;;;;;1700918;29;20266;-75
2022/11/26 08:45:57;;;;;;;6.18;5.57;;;7.70;97.20;;;;;;1700944;29;20579;-75
2022/11/26 08:46:50;;;;;;;8.90;5.78;;;7.70;97.20;;;;;;1700580;29;20218;-75
2022/11/26 08:47:40;;;;;;;7.38;5.90;;;7.70;97.20;;;;;;1700919;29;20626;-75
2022/11/26 08:48:33;;;;;;;7.80;5.73;;;7.70;97.20;;;;;;1700324;29;20266;-74
2022/11/26 08:49:24;;;;;;;6.10;5.50;;;7.70;97.20;;;;;;1700826;29;20662;-75
2022/11/26 08:50:16;;;;;;;6.73;5.60;;;7.70;97.20;;;;;;1700727;29;20635;-75
2022/11/26 08:51:11;;;;;;;8.82;6.40;;;7.70;97.20;;;;;;1700799;29;20443;-75
2022/11/26 08:52:03;;;;;;;7.93;6.10;;;7.80;97.20;;;;;;1700959;29;20199;-75
2022/11/26 08:52:54;;;;;;;9.00;6.30;;;7.80;97.20;;;;;;1700793;29;20199;-74
2022/11/26 08:53:46;;;;;;;9.70;7.60;;;7.80;97.20;;;;;;1704455;29;20191;-76
2022/11/26 08:54:37;;;;;;;13.05;7.57;;;7.90;97.20;;;;;;1707463;29;20210;-75
2022/11/26 08:55:29;;;;;;;8.80;7.07;;;7.90;97.20;;;;;;1707431;29;20206;-75
2022/11/26 08:56:20;;;;;;;9.15;7.32;;;7.90;97.20;;;;;;1707478;29;20206;-75
2022/11/26 08:57:12;;;;;;;10.45;7.78;;;8.00;97.20;;;;;;1707194;29;20201;-75
2022/11/26 08:58:02;;;;;;;10.00;8.27;;;8.00;97.20;;;;;;1707501;29;20689;-75
2022/11/26 08:58:54;;;;;;;10.70;8.80;;;8.00;97.20;;;;;;1707119;29;20576;-75
2022/11/26 08:59:45;;;;;;;9.10;8.18;;;8.00;97.20;;;;;;1707169;29;20213;-75
2022/11/26 09:00:37;;;;;;;9.80;8.80;;;8.10;97.20;;;;;;1707337;29;20222;-76
2022/11/26 09:01:29;;;;;;;9.38;8.45;;;8.10;97.20;;;;;;1707315;29;20218;-75
2022/11/26 09:02:21;;;;;;;9.95;8.50;;;8.10;97.20;;;;;;1707491;29;20208;-75
2022/11/26 09:03:12;;;;;;;9.88;8.85;;;8.20;97.20;;;;;;1707302;29;20202;-75
2022/11/26 09:04:04;;;;;;;9.23;8.17;;;8.20;97.20;;;;;;1707393;29;20214;-75
2022/11/26 09:04:55;;;;;;;11.05;8.35;;;8.30;97.20;;;;;;1707442;28;20203;-75
2022/11/26 09:05:47;;;;;;;10.03;8.80;;;8.40;97.20;;;;;;1707442;29;20206;-76
2022/11/26 09:06:40;;;;;;;9.80;8.80;;;8.50;97.20;;;;;;1707202;29;20209;-76
2022/11/26 09:07:31;;;;;;;9.95;8.90;;;8.60;97.20;;;;;;1705255;29;20261;-75
2022/11/26 09:08:26;;;;;;;11.10;8.80;;;8.70;97.20;;;;;;1700253;29;20207;-76
2022/11/26 09:09:17;;;;;;;44.08;39.78;;;8.80;97.20;;;;;;1700748;29;20246;-75
2022/11/26 09:10:09;;;;;;;42.87;38.63;;;8.90;97.20;;;;;;1700600;29;20234;-76
2022/11/26 09:11:00;;;;;;;28.95;26.27;;;9.00;97.20;;;;;;1700870;29;20203;-75
2022/11/26 09:11:56;;;;;;;34.67;31.50;;;9.10;97.20;;;;;;1700653;29;20658;-76
2022/11/26 09:12:47;;;;;;;23.67;21.42;;;9.20;97.20;;;;;;1700815;29;20214;-75
2022/11/26 09:13:38;;;;;;;19.90;17.93;;;9.40;97.20;;;;;;1700784;29;20213;-75
2022/11/26 09:14:35;;;;;;;11.48;10.32;;;9.50;97.20;;;;;;1700790;29;20207;-75
2022/11/26 09:15:26;;;;;;;8.57;7.75;;;9.60;97.20;;;;;;1700676;29;20191;-76
2022/11/26 09:16:17;;;;;;;8.80;8.00;;;9.70;97.20;;;;;;1700825;29;20713;-75
2022/11/26 09:17:11;;;;;;;7.57;5.63;;;9.80;97.20;;;;;;1700413;29;20611;-75
2022/11/26 09:18:02;;;;;;;7.15;6.45;;;9.90;97.20;;;;;;1700835;29;20748;-75
2022/11/26 09:18:54;;;;;;;8.23;6.70;;;10.00;97.20;;;;;;1700156;29;20573;-75
2022/11/26 09:19:45;;;;;;;8.73;6.18;;;10.10;97.20;;;;;;1700482;29;20560;-75
2022/11/26 09:20:36;;;;;;;9.03;6.10;;;10.20;97.20;;;;;;1700594;29;20311;-75
2022/11/26 09:21:27;;;;;;;10.20;8.50;;;10.30;97.20;;;;;;1700559;29;20584;-76
2022/11/26 09:22:20;;;;;;;11.73;9.23;;;10.40;97.20;;;;;;1700722;29;20199;-76
2022/11/26 09:23:11;;;;;;;9.85;8.50;;;10.50;97.20;;;;;;1700573;29;20451;-76
2022/11/26 09:24:03;;;;;;;10.83;9.90;;;10.60;97.20;;;;;;1702968;29;20195;-75
2022/11/26 09:24:54;;;;;;;11.27;9.10;;;10.70;97.20;;;;;;1707267;29;20206;-75
2022/11/26 09:25:45;;;;;;;9.67;7.67;;;10.80;97.20;;;;;;1706917;29;20210;-76
2022/11/26 09:26:36;;;;;;;9.43;7.10;;;10.90;97.20;;;;;;1707137;29;20209;-76
2022/11/26 09:27:28;;;;;;;7.90;6.32;;;10.90;97.20;;;;;;1706828;29;20237;-76
2022/11/26 09:28:19;;;;;;;10.02;6.13;;;11.00;97.20;;;;;;1707331;28;20202;-75
2022/11/26 09:29:13;;;;;;;9.83;8.87;;;11.10;97.20;;;;;;1706914;28;20293;-76
2022/11/26 09:30:05;;;;;;;11.20;10.20;;;11.20;97.20;;;;;;1707723;28;20663;-76
2022/11/26 09:30:57;;;;;;;10.48;9.35;;;11.30;97.20;;;;;;1706850;28;20667;-76
2022/11/26 09:31:50;;;;;;;5.75;5.25;;;11.30;97.20;;;;;;1708670;28;20555;-76
2022/11/26 09:32:40;;;;;;;6.80;5.45;;;11.40;97.20;;;;;;1707383;28;20207;-76
2022/11/26 09:33:32;;;;;;;6.40;5.73;;;11.40;97.20;;;;;;1707816;28;20261;-76
2022/11/26 09:34:23;;;;;;;6.22;5.55;;;11.50;97.20;;;;;;1707864;28;20237;-76
2022/11/26 09:35:15;;;;;;;8.03;5.60;;;11.50;97.20;;;;;;1707581;28;20225;-75
2022/11/26 09:36:08;;;;;;;6.63;5.05;;;11.60;97.20;;;;;;1707547;28;20210;-76
2022/11/26 09:37:00;;;;;;;9.02;5.82;;;11.60;97.20;;;;;;1707364;28;20227;-76
2022/11/26 09:37:52;;;;;;;7.40;5.55;;;11.70;97.20;;;;;;1707295;28;20617;-75
2022/11/26 09:38:44;;;;;;;5.60;5.00;;;11.80;97.20;;;;;;1706889;28;20250;-76
2022/11/26 09:39:35;;;;;;;6.47;5.05;;;11.80;97.20;;;;;;1707250;28;20203;-75
2022/11/26 09:40:38;;;;;;;6.97;6.33;;;11.90;97.20;;;;;;1706263;28;20206;-75
2022/11/26 09:41:37;;;;;;;8.93;7.05;;;12.00;97.20;;;;;;1707198;29;20210;-75
2022/11/26 09:42:45;;;;;;;10.77;8.43;;;12.20;97.20;;;;;;1707322;29;20203;-76
2022/11/26 09:43:49;;;;;;;8.10;6.90;;;12.30;97.20;;;;;;1707463;29;20676;-75
2022/11/26 09:44:55;;;;;;;7.70;5.90;;;12.40;97.20;;;;;;1707850;29;20187;-76
2022/11/26 09:45:51;;;;;;;8.23;6.38;;;12.50;97.20;;;;;;1707268;29;20692;-75
2022/11/26 09:46:51;;;;;;;8.68;5.80;;;12.60;97.20;;;;;;1707131;29;20237;-76
2022/11/26 09:47:46;;;;;;;8.02;5.68;;;12.80;97.20;;;;;;1707923;29;20238;-76
2022/11/26 09:48:42;;;;;;;8.93;5.53;;;12.90;97.20;;;;;;1706933;29;20297;-76
2022/11/26 09:49:36;;;;;;;7.25;5.60;;;13.00;97.20;;;;;;1707134;29;20234;-76
2022/11/26 09:50:31;;;;;;;7.75;5.13;;;13.10;97.20;;;;;;1707266;29;20733;-75
2022/11/26 09:51:22;;;;;;;8.45;5.57;;;13.30;97.20;;;;;;1707474;29;20218;-75
2022/11/26 09:52:17;;;;;;;6.63;5.20;;;13.30;97.20;;;;;;1707333;29;20209;-75
2022/11/26 09:53:16;;;;;;;7.53;5.32;;;13.40;97.20;;;;;;1708221;29;20446;-75
2022/11/26 09:54:15;;;;;;;11.85;9.23;;;13.50;97.20;;;;;;1707788;29;20657;-75
2022/11/26 09:55:13;;;;;;;10.00;7.80;;;13.60;97.20;;;;;;1707960;29;20269;-76
2022/11/26 09:56:09;;;;;;;10.75;6.90;;;13.60;97.20;;;;;;1708098;29;20732;-76
2022/11/26 09:57:13;;;;;;;6.93;6.10;;;13.70;97.20;;;;;;1706338;29;20214;-75
2022/11/26 09:58:12;;;;;;;8.25;6.65;;;13.80;97.20;;;;;;1707439;29;20214;-76
2022/11/26 09:59:05;;;;;;;6.30;5.72;;;13.80;97.20;;;;;;1707566;28;20214;-75
2022/11/26 09:59:57;;;;;;;7.22;5.60;;;13.80;97.20;;;;;;1707504;29;20213;-76
2022/11/26 10:00:51;;;;;;;7.90;5.18;;;13.90;97.20;;;;;;1708121;29;20230;-75
2022/11/26 10:01:41;;;;;;;8.55;5.93;;;13.90;97.20;;;;;;1708457;29;20213;-75
2022/11/26 10:02:34;;;;;;;7.67;5.33;;;14.00;97.20;;;;;;1707769;29;20213;-76
2022/11/26 10:03:31;;;;;;;5.95;5.05;;;14.00;97.20;;;;;;1707947;29;20457;-76
2022/11/26 10:04:31;;;;;;;7.22;4.90;;;14.00;97.20;;;;;;1707969;29;20215;-75
2022/11/26 10:05:39;;;;;;;6.15;5.25;;;14.10;97.20;;;;;;1707955;29;20203;-75
2022/11/26 10:06:38;;;;;;;6.90;5.03;;;14.10;97.20;;;;;;1707999;29;20211;-75
2022/11/26 10:07:43;;;;;;;6.07;4.97;;;14.20;97.20;;;;;;1708393;29;20211;-75
2022/11/26 10:09:01;;;;;;;7.28;4.80;;;14.30;97.20;;;;;;1707641;29;20563;-75
2022/11/26 10:09:59;;;;;;;9.20;5.75;;;14.40;97.20;;;;;;1707527;28;20210;-76
2022/11/26 10:10:55;;;;;;;8.70;6.35;;;14.50;97.20;;;;;;1708017;29;20231;-75
2022/11/26 10:11:53;;;;;;;7.97;5.95;;;14.60;97.20;;;;;;1708354;29;20195;-76
2022/11/26 10:12:57;;;;;;;6.22;5.63;;;14.60;97.20;;;;;;1705377;29;20201;-76
2022/11/26 10:14:09;;;;;;;7.40;5.75;;;14.70;97.20;;;;;;1705887;29;20203;-75
2022/11/26 10:15:09;;;;;;;8.55;5.30;;;14.80;97.20;;;;;;1706646;29;20681;-75
2022/11/26 10:16:10;;;;;;;8.25;5.85;;;14.90;97.20;;;;;;1706303;29;20218;-74
2022/11/26 10:17:14;;;;;;;9.90;5.53;;;15.00;97.20;;;;;;1701737;29;20936;-76
2022/11/26 10:18:21;;;;;;;9.20;5.10;;;15.10;97.20;;;;;;1700832;29;20561;-75
2022/11/26 10:19:21;;;;;;;6.28;5.53;;;15.20;97.20;;;;;;1702525;29;20207;-74
2022/11/26 10:20:41;;;;;;;7.78;5.50;;;15.30;97.20;;;;;;1707469;29;20197;-74
2022/11/26 10:21:37;;;;;;;8.30;5.55;;;15.50;97.20;;;;;;1686721;29;20196;-75
2022/11/26 10:22:34;;;;;;;6.85;4.90;;;15.60;97.20;;;;;;1707211;29;20211;-75
2022/11/26 10:23:30;;;;;;;4.97;4.22;;;15.60;97.20;;;;;;1704507;29;20653;-75
2022/11/26 10:24:29;;;;;;;6.25;4.45;;;15.50;97.20;;;;;;1707841;29;20214;-75
2022/11/26 10:25:25;;;;;;;6.93;4.50;;;15.50;97.20;;;;;;1706696;29;20206;-75
2022/11/26 10:26:21;;;;;;;6.18;4.90;;;15.30;97.20;;;;;;1702254;29;20495;-75
2022/11/26 10:27:15;;;;;;;8.68;5.63;;;15.20;97.20;;;;;;1701580;29;20191;-75
2022/11/26 10:28:17;;;;;;;7.95;5.22;;;15.10;97.20;;;;;;1707403;29;20199;-75
2022/11/26 10:29:20;;;;;;;6.13;5.20;;;14.90;97.20;;;;;;1706864;29;20203;-75
2022/11/26 10:30:19;;;;;;;7.63;5.30;;;14.80;97.20;;;;;;1707243;29;20302;-75
2022/11/26 10:31:17;;;;;;;5.90;5.30;;;14.60;97.20;;;;;;1707378;29;20880;-75
2022/11/26 10:32:14;;;;;;;6.10;5.28;;;14.50;97.20;;;;;;1707584;29;20203;-74
2022/11/26 10:33:06;;;;;;;5.65;4.82;;;14.40;97.20;;;;;;1707461;29;20603;-74
2022/11/26 10:34:00;;;;;;;6.38;5.50;;;14.30;97.20;;;;;;1707276;29;20253;-74
2022/11/26 10:34:52;;;;;;;9.93;5.30;;;14.30;97.20;;;;;;1707437;29;20680;-75
2022/11/26 10:35:46;;;;;;;7.78;5.95;;;14.20;97.20;;;;;;1702229;29;20200;-74
2022/11/26 10:36:40;;;;;;;6.05;5.20;;;14.10;97.20;;;;;;1700394;29;20196;-76
2022/11/26 10:37:32;;;;;;;6.45;5.28;;;14.00;97.20;;;;;;1704286;29;20323;-75
2022/11/26 10:38:23;;;;;;;7.35;5.60;;;14.00;97.20;;;;;;1700831;29;20207;-76